Time;durP1;ratioP1;P1;durP2;ratioP2;P2;SDS_P1;SDS_P2;PMS_P1;PMS_P2;Temp;Humidity;BMP_temperature;BMP_pressure;BME280_temperature;BME280_humidity;BME280_pressure;Samples;Min_cycle;Max_cycle;Signal;HPM_P1;HPM_P2
2023/12/10 00:01:05;;;;;;;33.45;7.65;;;;;;;9.72;94.35;99355.94;4950650;28;20132;-79
2023/12/10 00:03:31;;;;;;;34.10;7.10;;;;;;;9.71;94.31;99349.09;4948248;28;20048;-81
2023/12/10 00:05:58;;;;;;;29.85;7.00;;;;;;;9.74;94.13;99371.44;4957249;28;20098;-81
2023/12/10 00:08:25;;;;;;;28.05;7.07;;;;;;;9.72;93.70;99366.38;4958240;28;20047;-81
2023/12/10 00:10:51;;;;;;;34.08;6.75;;;;;;;9.71;93.75;99362.16;4955975;28;20110;-80
2023/12/10 00:13:18;;;;;;;25.73;6.95;;;;;;;9.74;93.45;99359.19;4948861;28;20515;-81
2023/12/10 00:15:45;;;;;;;36.25;7.10;;;;;;;9.77;93.29;99365.84;4959141;28;20137;-80
2023/12/10 00:18:13;;;;;;;31.23;7.35;;;;;;;9.83;93.81;99349.44;4957806;28;20043;-79
2023/12/10 00:20:40;;;;;;;30.52;8.00;;;;;;;9.89;93.58;99372.25;4960456;28;20047;-79
2023/12/10 00:23:10;;;;;;;39.67;6.82;;;;;;;9.89;93.58;99367.00;4947095;28;20151;-81
2023/12/10 00:25:36;;;;;;;30.20;7.22;;;;;;;9.91;93.54;99378.09;4954655;28;20062;-82
2023/12/10 00:28:03;;;;;;;42.50;8.73;;;;;;;9.89;93.19;99380.88;4953518;28;20048;-81
2023/12/10 00:30:30;;;;;;;38.55;7.13;;;;;;;9.88;93.23;99376.66;4957408;28;20070;-80
2023/12/10 00:32:56;;;;;;;35.50;8.05;;;;;;;9.89;92.92;99369.63;4959069;29;20114;-83
2023/12/10 00:35:25;;;;;;;40.95;6.93;;;;;;;9.88;93.22;99394.13;4959295;29;20106;-83
2023/12/10 00:37:51;;;;;;;28.10;7.50;;;;;;;9.87;93.27;99393.31;4953413;29;20047;-82
2023/12/10 00:40:18;;;;;;;36.90;7.57;;;;;;;9.87;92.95;99382.06;4952543;29;20051;-81
2023/12/10 00:42:45;;;;;;;45.20;8.18;;;;;;;9.90;92.63;99381.69;4952057;29;20048;-81
2023/12/10 00:45:11;;;;;;;35.40;8.60;;;;;;;9.89;92.26;99387.91;4956671;29;20052;-80
2023/12/10 00:47:38;;;;;;;29.33;7.10;;;;;;;9.91;91.95;99380.72;4954135;29;20043;-80
2023/12/10 00:50:06;;;;;;;31.58;7.57;;;;;;;9.93;92.07;99376.06;4958152;28;20051;-80
2023/12/10 00:52:34;;;;;;;32.45;7.20;;;;;;;9.89;92.20;99385.31;4958953;29;20047;-81
2023/12/10 00:55:01;;;;;;;32.85;7.15;;;;;;;9.89;91.65;99383.50;4958645;29;20496;-81
2023/12/10 00:57:27;;;;;;;27.42;6.50;;;;;;;9.89;91.62;99386.13;4959124;28;20486;-80
2023/12/10 00:59:54;;;;;;;39.85;7.45;;;;;;;9.85;91.50;99386.66;4961769;29;20087;-81
2023/12/10 01:02:22;;;;;;;35.80;7.72;;;;;;;9.92;91.55;99403.22;4958345;29;20133;-80
2023/12/10 01:04:48;;;;;;;39.90;7.10;;;;;;;10.01;90.90;99396.06;4961102;29;20463;-79
2023/12/10 01:07:16;;;;;;;44.30;7.28;;;;;;;10.01;91.14;99389.06;4957137;28;20047;-79
2023/12/10 01:09:44;;;;;;;37.72;7.30;;;;;;;9.98;90.90;99386.78;4960637;29;20051;-79
2023/12/10 01:12:11;;;;;;;29.83;6.65;;;;;;;10.02;90.62;99395.09;4960840;29;20055;-79
2023/12/10 01:14:37;;;;;;;29.30;8.00;;;;;;;9.97;90.89;99398.25;4961992;29;20063;-78
2023/12/10 01:17:05;;;;;;;33.40;7.30;;;;;;;10.00;91.33;99418.78;4960760;29;20054;-80
2023/12/10 01:19:31;;;;;;;31.83;7.18;;;;;;;9.97;91.13;99419.97;4960157;29;20047;-78
2023/12/10 01:21:58;;;;;;;35.83;6.80;;;;;;;9.92;91.28;99422.31;4960130;29;20146;-79
2023/12/10 01:24:25;;;;;;;28.80;6.78;;;;;;;9.95;91.09;99421.13;4958825;29;20051;-79
2023/12/10 01:26:53;;;;;;;32.97;7.05;;;;;;;9.96;91.37;99422.75;4959612;29;20051;-80
2023/12/10 01:29:20;;;;;;;28.13;7.00;;;;;;;9.92;90.86;99431.97;4956452;29;20055;-79
2023/12/10 01:31:46;;;;;;;31.52;6.60;;;;;;;9.91;90.60;99425.94;4955711;29;20384;-78
2023/12/10 01:34:13;;;;;;;34.35;7.30;;;;;;;10.01;89.33;99428.25;4949103;29;20110;-79
2023/12/10 01:36:40;;;;;;;32.55;7.15;;;;;;;10.04;88.89;99438.34;4958539;28;20055;-81
2023/12/10 01:39:07;;;;;;;27.05;6.95;;;;;;;9.95;89.11;99421.13;4959916;28;20051;-79
2023/12/10 01:41:34;;;;;;;35.65;6.97;;;;;;;9.94;88.90;99425.53;4954708;28;20075;-81
2023/12/10 01:44:03;;;;;;;24.15;5.82;;;;;;;9.95;88.32;99415.91;4961631;29;20051;-80
2023/12/10 01:46:30;;;;;;;30.77;6.32;;;;;;;9.94;88.36;99437.81;4962753;28;20073;-80
2023/12/10 01:48:58;;;;;;;35.42;7.22;;;;;;;9.93;88.58;99438.78;4961713;29;20047;-81
2023/12/10 01:51:25;;;;;;;34.60;6.50;;;;;;;9.96;88.51;99438.44;4961164;29;20106;-81
2023/12/10 01:53:52;;;;;;;20.75;5.43;;;;;;;9.97;88.27;99440.06;4962456;28;20114;-82
2023/12/10 01:56:22;;;;;;;35.72;8.43;;;;;;;9.96;88.15;99456.72;4961449;29;20059;-81
2023/12/10 01:58:49;;;;;;;29.27;6.53;;;;;;;9.95;88.09;99468.16;4961764;29;20065;-81
2023/12/10 02:01:18;;;;;;;23.92;7.18;;;;;;;9.96;88.37;99454.13;4962060;28;20051;-81
2023/12/10 02:03:45;;;;;;;27.98;5.32;;;;;;;9.96;88.04;99464.56;4958265;28;20179;-81
2023/12/10 02:06:12;;;;;;;27.02;5.82;;;;;;;9.90;87.96;99473.16;4961637;29;20055;-81
2023/12/10 02:08:40;;;;;;;20.60;5.22;;;;;;;9.86;88.57;99477.94;4961337;28;20054;-81
2023/12/10 02:11:07;;;;;;;27.05;6.60;;;;;;;9.81;88.35;99471.59;4961351;28;20105;-81
2023/12/10 02:13:34;;;;;;;28.13;6.30;;;;;;;9.88;87.86;99470.72;4957585;29;20075;-82
2023/12/10 02:16:01;;;;;;;32.05;5.63;;;;;;;9.84;88.21;99466.03;4962191;29;20058;-81
2023/12/10 02:18:29;;;;;;;24.63;5.80;;;;;;;9.78;88.16;99483.22;4963532;28;20494;-81
2023/12/10 02:20:57;;;;;;;25.60;6.70;;;;;;;9.75;88.30;99477.53;4963677;28;20051;-80
2023/12/10 02:23:34;;;;;;;30.80;5.95;;;;;;;9.79;87.78;99479.63;4959172;29;20063;-80
2023/12/10 02:26:04;;;;;;;24.00;5.63;;;;;;;9.77;88.28;99467.72;4966282;29;20082;-81
2023/12/10 02:28:32;;;;;;;20.50;4.57;;;;;;;9.77;87.73;99481.59;4960446;28;20047;-81
2023/12/10 02:30:59;;;;;;;25.70;5.72;;;;;;;9.78;87.53;99485.03;4959411;29;20114;-81
2023/12/10 02:33:25;;;;;;;22.67;5.40;;;;;;;9.77;86.97;99483.41;4948803;29;20059;-81
2023/12/10 02:35:52;;;;;;;32.78;7.63;;;;;;;9.79;86.59;99489.25;4960470;28;20102;-80
2023/12/10 02:38:21;;;;;;;23.92;5.70;;;;;;;9.81;85.86;99480.25;4960692;29;20051;-81
2023/12/10 02:40:48;;;;;;;23.58;5.22;;;;;;;9.73;85.83;99477.72;4960077;28;20059;-80
2023/12/10 02:43:17;;;;;;;24.67;5.82;;;;;;;9.74;84.94;99462.88;4952660;29;20550;-82
2023/12/10 02:45:44;;;;;;;23.83;6.10;;;;;;;9.74;84.72;99465.47;4952190;28;20095;-82
2023/12/10 02:48:10;;;;;;;27.15;5.82;;;;;;;9.69;84.77;99462.59;4952372;29;20042;-82
2023/12/10 02:50:37;;;;;;;25.92;5.13;;;;;;;9.68;84.88;99481.84;4960202;28;20102;-82
2023/12/10 02:53:04;;;;;;;21.48;5.10;;;;;;;9.78;84.36;99482.41;4961044;28;20063;-83
2023/12/10 02:55:33;;;;;;;20.60;4.57;;;;;;;9.74;84.57;99500.25;4960098;28;20050;-81
2023/12/10 02:58:00;;;;;;;19.25;5.88;;;;;;;9.74;84.33;99504.66;4959476;29;20137;-82
2023/12/10 03:00:28;;;;;;;27.77;5.75;;;;;;;9.73;84.56;99500.41;4961676;28;20106;-83
2023/12/10 03:02:54;;;;;;;20.10;4.82;;;;;;;9.71;84.37;99500.59;4959504;29;20142;-81
2023/12/10 03:05:21;;;;;;;24.13;5.65;;;;;;;9.70;84.10;99501.59;4959832;29;20051;-81
2023/12/10 03:07:48;;;;;;;18.05;4.90;;;;;;;9.65;85.17;99533.47;4959929;29;20470;-81
2023/12/10 03:10:15;;;;;;;27.13;5.55;;;;;;;9.41;87.35;99545.91;4960149;28;20080;-81
2023/12/10 03:12:41;;;;;;;26.77;5.28;;;;;;;9.25;89.26;99554.66;4955917;29;20059;-81
2023/12/10 03:15:09;;;;;;;26.63;5.22;;;;;;;9.14;90.63;99578.56;4959961;28;20059;-81
2023/12/10 03:17:37;;;;;;;25.55;5.03;;;;;;;9.08;91.39;99566.19;4960314;29;20062;-81
2023/12/10 03:20:04;;;;;;;20.20;4.88;;;;;;;8.99;92.46;99566.22;4959583;28;20059;-81
2023/12/10 03:22:31;;;;;;;25.55;5.63;;;;;;;8.97;92.92;99570.84;4957347;29;20134;-81
2023/12/10 03:24:58;;;;;;;21.42;5.80;;;;;;;8.90;94.19;99577.72;4959325;28;20051;-79
2023/12/10 03:27:26;;;;;;;23.50;5.72;;;;;;;8.90;94.32;99574.28;4960384;29;20051;-80
2023/12/10 03:29:52;;;;;;;29.35;6.47;;;;;;;8.93;94.44;99577.38;4963620;28;20046;-79
2023/12/10 03:32:19;;;;;;;31.15;5.57;;;;;;;9.07;93.49;99577.59;4958628;29;20160;-80
2023/12/10 03:34:47;;;;;;;27.42;5.70;;;;;;;9.13;93.26;99580.34;4959638;28;20051;-81
2023/12/10 03:37:14;;;;;;;27.05;5.60;;;;;;;9.01;93.99;99594.75;4958950;28;20085;-81
2023/12/10 03:39:40;;;;;;;24.90;5.70;;;;;;;8.92;95.46;99594.00;4959333;28;20051;-81
2023/12/10 03:42:07;;;;;;;30.10;6.40;;;;;;;8.85;96.39;99620.94;4953832;29;20062;-80
2023/12/10 03:44:34;;;;;;;26.80;5.25;;;;;;;8.77;97.36;99598.31;4960556;28;20111;-79
2023/12/10 03:47:01;;;;;;;23.98;5.30;;;;;;;8.75;98.07;99622.94;4959086;29;20051;-80
2023/12/10 03:49:28;;;;;;;22.27;6.25;;;;;;;8.73;98.89;99620.50;4959543;29;20047;-80
2023/12/10 03:51:56;;;;;;;30.80;6.03;;;;;;;8.69;99.65;99634.03;4959502;28;20051;-81
2023/12/10 03:54:23;;;;;;;23.98;5.20;;;;;;;8.59;100.00;99636.84;4959361;28;20091;-81
2023/12/10 03:56:50;;;;;;;24.38;6.50;;;;;;;8.55;100.00;99625.91;4958327;29;20459;-81
2023/12/10 03:59:16;;;;;;;24.67;5.75;;;;;;;8.60;100.00;99623.63;4959807;28;20047;-81
2023/12/10 04:01:43;;;;;;;27.02;5.78;;;;;;;8.55;100.00;99612.06;4951290;28;20130;-81
2023/12/10 04:04:10;;;;;;;26.90;5.18;;;;;;;8.50;100.00;99617.00;4959389;29;20051;-80
2023/12/10 04:06:39;;;;;;;22.02;5.20;;;;;;;8.57;100.00;99618.75;4958456;29;20067;-80
2023/12/10 04:09:08;;;;;;;27.67;5.07;;;;;;;8.56;100.00;99606.69;4958707;28;20043;-80
2023/12/10 04:11:34;;;;;;;23.77;5.40;;;;;;;8.55;100.00;99596.44;4959125;29;20146;-80
2023/12/10 04:14:01;;;;;;;21.77;5.32;;;;;;;8.54;100.00;99608.66;4958942;29;20051;-80
2023/12/10 04:16:29;;;;;;;28.42;6.85;;;;;;;8.54;100.00;99607.84;4958753;29;20051;-80
2023/12/10 04:18:56;;;;;;;30.15;7.07;;;;;;;8.53;100.00;99608.81;4959797;29;20130;-80
2023/12/10 04:21:23;;;;;;;33.17;6.22;;;;;;;8.62;100.00;99613.03;4951875;28;20133;-80
2023/12/10 04:23:50;;;;;;;29.38;5.75;;;;;;;8.64;99.69;99618.88;4958961;29;20055;-80
2023/12/10 04:26:18;;;;;;;34.40;6.80;;;;;;;8.72;99.34;99631.09;4958128;29;20204;-80
2023/12/10 04:28:45;;;;;;;26.05;5.85;;;;;;;8.70;99.60;99613.00;4957448;28;20110;-79
2023/12/10 04:31:12;;;;;;;23.70;5.90;;;;;;;8.68;99.42;99621.97;4953486;29;20080;-79
2023/12/10 04:33:39;;;;;;;27.83;5.72;;;;;;;8.70;99.64;99613.00;4956783;29;20389;-80
2023/12/10 04:36:06;;;;;;;26.88;6.03;;;;;;;8.67;99.53;99618.56;4961665;28;20051;-79
2023/12/10 04:38:33;;;;;;;31.17;6.57;;;;;;;8.71;99.05;99603.38;4961827;29;20051;-80
2023/12/10 04:41:00;;;;;;;32.60;6.10;;;;;;;8.71;98.75;99604.19;4957720;29;20082;-79
2023/12/10 04:43:28;;;;;;;28.40;5.43;;;;;;;8.81;98.05;99594.38;4962812;29;20061;-80
2023/12/10 04:45:55;;;;;;;29.23;6.28;;;;;;;8.80;98.00;99602.38;4961778;29;20055;-80
2023/12/10 04:48:22;;;;;;;22.63;6.00;;;;;;;8.82;97.47;99593.41;4961230;28;20055;-80
2023/12/10 04:50:49;;;;;;;29.42;6.03;;;;;;;8.92;96.50;99604.44;4962236;28;20090;-80
2023/12/10 04:53:15;;;;;;;35.78;7.35;;;;;;;8.96;96.19;99595.31;4962141;29;20102;-80
2023/12/10 04:55:42;;;;;;;32.97;6.68;;;;;;;9.01;94.98;99599.16;4962398;29;20391;-80
2023/12/10 04:58:09;;;;;;;28.25;5.95;;;;;;;9.09;94.11;99607.78;4961137;28;20055;-80
2023/12/10 05:00:37;;;;;;;27.75;6.22;;;;;;;9.15;93.60;99601.88;4962345;28;20055;-80
2023/12/10 05:03:04;;;;;;;25.52;6.25;;;;;;;9.22;92.16;99607.22;4963279;29;20051;-80
2023/12/10 05:05:30;;;;;;;24.98;5.75;;;;;;;9.24;91.95;99603.44;4964519;29;20106;-80
2023/12/10 05:07:57;;;;;;;24.52;5.85;;;;;;;9.27;90.92;99607.53;4962717;29;20044;-80
2023/12/10 05:10:24;;;;;;;27.23;6.00;;;;;;;9.31;90.65;99608.81;4962427;28;20082;-80
2023/12/10 05:12:51;;;;;;;26.90;6.32;;;;;;;9.36;89.80;99609.09;4959893;28;20114;-79
2023/12/10 05:15:18;;;;;;;25.75;5.57;;;;;;;9.35;89.86;99617.09;4960908;29;20059;-79
2023/12/10 05:17:46;;;;;;;24.13;5.47;;;;;;;9.40;89.51;99622.63;4958091;28;20047;-80
2023/12/10 05:20:13;;;;;;;22.60;5.50;;;;;;;9.38;89.51;99599.28;4959349;28;20055;-79
2023/12/10 05:22:39;;;;;;;28.83;6.18;;;;;;;9.35;89.41;99620.53;4960589;29;20055;-81
2023/12/10 05:25:07;;;;;;;23.85;5.40;;;;;;;9.44;88.81;99622.09;4961686;29;20087;-80
2023/12/10 05:27:36;;;;;;;22.60;5.68;;;;;;;9.43;88.73;99624.88;4951415;28;20427;-80
2023/12/10 05:30:04;;;;;;;27.70;5.55;;;;;;;9.41;88.53;99648.56;4960008;28;20047;-80
2023/12/10 05:32:30;;;;;;;26.55;5.85;;;;;;;9.45;87.93;99641.97;4961864;29;20489;-80
2023/12/10 05:34:58;;;;;;;22.23;5.78;;;;;;;9.39;88.49;99649.72;4960935;29;20086;-80
2023/12/10 05:37:25;;;;;;;26.90;5.68;;;;;;;9.36;88.54;99670.94;4959231;29;20098;-80
2023/12/10 05:39:52;;;;;;;21.60;5.00;;;;;;;9.37;87.83;99644.66;4957409;28;20195;-78
2023/12/10 05:42:18;;;;;;;29.00;6.20;;;;;;;9.42;87.22;99655.41;4959507;28;20055;-79
2023/12/10 05:44:45;;;;;;;25.10;5.60;;;;;;;9.44;87.04;99652.63;4961817;28;20079;-78
2023/12/10 05:47:12;;;;;;;28.95;5.60;;;;;;;9.41;86.84;99658.19;4960752;28;20055;-79
2023/12/10 05:49:38;;;;;;;26.23;5.07;;;;;;;9.41;86.71;99651.16;4959866;29;20039;-80
2023/12/10 05:52:07;;;;;;;23.63;5.20;;;;;;;9.42;86.58;99644.97;4961132;29;20106;-82
2023/12/10 05:54:33;;;;;;;24.17;5.63;;;;;;;9.44;86.48;99671.72;4961406;29;20051;-80
2023/12/10 05:57:00;;;;;;;19.50;4.78;;;;;;;9.45;85.90;99665.47;4961081;29;20058;-80
2023/12/10 05:59:27;;;;;;;25.55;6.05;;;;;;;9.45;85.83;99669.91;4959798;29;20043;-80
2023/12/10 06:01:54;;;;;;;30.27;6.68;;;;;;;9.44;86.60;99679.56;4960136;28;20055;-79
2023/12/10 06:04:20;;;;;;;23.90;5.18;;;;;;;9.43;86.96;99698.81;4956787;28;20518;-80
2023/12/10 06:06:47;;;;;;;21.35;5.78;;;;;;;9.40;87.17;99696.53;4960984;29;20058;-80
2023/12/10 06:09:15;;;;;;;28.00;5.80;;;;;;;9.44;86.86;99695.22;4957973;29;20047;-80
2023/12/10 06:11:42;;;;;;;26.25;7.20;;;;;;;9.43;87.15;99701.44;4960656;29;20062;-82
2023/12/10 06:14:09;;;;;;;23.40;5.00;;;;;;;9.38;87.38;99710.75;4960522;29;20055;-80
2023/12/10 06:16:36;;;;;;;30.40;6.30;;;;;;;9.41;87.33;99711.22;4959403;29;20486;-80
2023/12/10 06:19:02;;;;;;;22.92;5.00;;;;;;;9.45;86.86;99712.47;4960468;29;20105;-79
2023/12/10 06:21:30;;;;;;;23.88;5.45;;;;;;;9.47;86.60;99689.63;4958403;28;20082;-78
2023/12/10 06:23:56;;;;;;;21.67;4.68;;;;;;;9.43;86.82;99709.25;4958139;28;20079;-79
2023/12/10 06:26:24;;;;;;;24.42;5.68;;;;;;;9.44;87.50;99716.09;4958211;28;20059;-79
2023/12/10 06:28:51;;;;;;;26.75;6.00;;;;;;;9.40;87.44;99714.81;4959110;28;20087;-79
2023/12/10 06:31:18;;;;;;;26.63;5.47;;;;;;;9.40;87.50;99725.25;4958553;28;20090;-79
2023/12/10 06:33:45;;;;;;;23.33;5.35;;;;;;;9.49;86.83;99724.22;4958533;28;20126;-79
2023/12/10 06:36:12;;;;;;;28.45;5.45;;;;;;;9.49;86.74;99733.84;4959366;29;20055;-80
2023/12/10 06:38:39;;;;;;;18.38;4.97;;;;;;;9.48;87.52;99742.66;4962227;28;20051;-81
2023/12/10 06:41:06;;;;;;;22.30;5.35;;;;;;;9.49;87.00;99745.09;4960870;28;20051;-82
2023/12/10 06:43:34;;;;;;;25.58;5.38;;;;;;;9.52;87.18;99752.59;4960317;28;20055;-81
2023/12/10 06:46:00;;;;;;;22.63;5.50;;;;;;;9.46;87.34;99755.91;4961114;29;20153;-80
2023/12/10 06:48:27;;;;;;;29.27;5.45;;;;;;;9.49;87.37;99760.78;4960636;29;20055;-80
2023/12/10 06:50:54;;;;;;;26.90;5.47;;;;;;;9.50;87.74;99772.84;4961906;28;20055;-80
2023/12/10 06:53:22;;;;;;;24.33;5.80;;;;;;;9.50;87.41;99775.47;4959439;29;20055;-80
2023/12/10 06:55:49;;;;;;;27.13;6.28;;;;;;;9.54;87.15;99779.38;4959446;28;20066;-80
2023/12/10 06:58:15;;;;;;;21.23;5.28;;;;;;;9.54;87.23;99795.03;4952563;29;20167;-80
2023/12/10 07:00:43;;;;;;;26.52;6.18;;;;;;;9.52;86.87;99788.34;4959903;28;20052;-80
2023/12/10 07:03:10;;;;;;;25.30;5.72;;;;;;;9.52;86.87;99810.06;4960329;29;20426;-80
2023/12/10 07:05:37;;;;;;;23.20;5.70;;;;;;;9.53;87.00;99806.47;4955328;28;20122;-79
2023/12/10 07:08:04;;;;;;;18.92;4.45;;;;;;;9.51;86.77;99792.75;4958879;29;20051;-80
2023/12/10 07:10:31;;;;;;;23.05;5.25;;;;;;;9.55;86.90;99812.34;4959606;28;20054;-80
2023/12/10 07:12:57;;;;;;;25.10;6.00;;;;;;;9.57;86.52;99804.34;4960221;29;20630;-79
2023/12/10 07:15:24;;;;;;;21.27;5.25;;;;;;;9.58;86.83;99812.00;4963995;28;20062;-80
2023/12/10 07:18:13;;;;;;;21.52;5.32;;;;;;;9.59;86.95;99800.56;4959741;29;20047;-81
2023/12/10 07:20:59;;;;;;;23.75;5.18;;;;;;;9.57;87.36;99823.44;4956321;29;20103;-80
2023/12/10 07:23:42;;;;;;;20.80;5.07;;;;;;;9.42;87.58;99812.06;4960599;28;20047;-81
2023/12/10 07:26:27;;;;;;;27.73;5.55;;;;;;;9.57;87.30;99843.50;4960063;29;20126;-81
2023/12/10 07:28:56;;;;;;;22.58;4.72;;;;;;;9.53;87.24;99827.34;4959536;29;20058;-80
2023/12/10 07:31:40;;;;;;;21.88;5.07;;;;;;;9.61;87.22;99856.06;4955533;28;20062;-80
2023/12/10 07:37:11;;;;;;;27.40;5.07;;;;;;;9.54;86.09;99829.00;4925693;28;20043;-80
2023/12/10 07:39:40;;;;;;;26.48;5.55;;;;;;;9.58;86.79;99869.47;4953158;28;20160;-81
2023/12/10 07:42:11;;;;;;;22.27;5.10;;;;;;;9.49;87.21;99875.69;4948951;29;20144;-81
2023/12/10 07:44:41;;;;;;;18.00;5.35;;;;;;;9.54;87.65;99877.78;4949809;28;20051;-80
2023/12/10 07:47:08;;;;;;;21.63;4.93;;;;;;;9.36;87.54;99864.97;4948335;29;20048;-80
2023/12/10 07:49:40;;;;;;;29.38;5.72;;;;;;;9.46;86.85;99865.56;4948944;28;20043;-80
2023/12/10 07:52:07;;;;;;;20.42;4.82;;;;;;;9.49;86.57;99883.50;4947488;28;20510;-80
2023/12/10 07:54:34;;;;;;;23.65;5.38;;;;;;;9.53;87.21;99878.78;4950154;28;20065;-79
2023/12/10 07:57:01;;;;;;;21.58;5.57;;;;;;;9.48;87.55;99894.94;4947926;28;20702;-79
2023/12/10 07:59:28;;;;;;;24.33;6.32;;;;;;;9.40;87.31;99876.72;4956387;28;20475;-80
2023/12/10 08:01:55;;;;;;;23.52;5.05;;;;;;;9.48;87.33;99912.41;4951703;28;20055;-80
2023/12/10 08:04:21;;;;;;;26.30;5.45;;;;;;;9.49;87.50;99914.03;4952403;28;20059;-81
2023/12/10 08:06:51;;;;;;;24.83;5.40;;;;;;;9.52;87.59;99909.31;4947729;28;20478;-81
2023/12/10 08:09:18;;;;;;;17.10;5.00;;;;;;;9.41;87.77;99914.09;4953392;28;20073;-81
2023/12/10 08:11:45;;;;;;;16.85;4.40;;;;;;;9.43;87.26;99931.22;4960806;28;20143;-78
2023/12/10 08:14:11;;;;;;;25.58;5.68;;;;;;;9.51;86.92;99925.94;4956813;28;20119;-80
2023/12/10 08:16:38;;;;;;;20.02;4.93;;;;;;;9.47;86.78;99929.88;4957112;28;20058;-80
2023/12/10 08:19:05;;;;;;;25.83;5.93;;;;;;;9.47;86.29;99935.09;4959295;28;20047;-81
2023/12/10 08:21:31;;;;;;;21.17;5.28;;;;;;;9.44;86.35;99937.25;4955882;28;20083;-80
2023/12/10 08:23:59;;;;;;;18.42;5.03;;;;;;;9.44;86.22;99938.06;4953372;29;20285;-80
2023/12/10 08:26:26;;;;;;;27.92;5.30;;;;;;;9.48;86.19;99941.94;4953700;28;20055;-79
2023/12/10 08:28:53;;;;;;;20.45;4.32;;;;;;;9.46;86.65;99963.97;4955039;28;20052;-80
2023/12/10 08:31:20;;;;;;;22.60;5.47;;;;;;;9.50;86.39;99944.41;4955076;28;20447;-81
2023/12/10 08:33:47;;;;;;;21.25;5.03;;;;;;;9.48;86.21;99955.00;4956198;28;20498;-80
2023/12/10 08:36:14;;;;;;;22.42;5.20;;;;;;;9.45;86.79;99976.22;4955914;28;20062;-81
2023/12/10 08:38:41;;;;;;;23.23;5.45;;;;;;;9.50;86.50;99992.22;4960955;28;20051;-81
2023/12/10 08:41:09;;;;;;;17.88;4.30;;;;;;;9.51;86.70;99988.63;4961549;28;20043;-81
2023/12/10 08:43:37;;;;;;;23.83;5.97;;;;;;;9.48;87.30;99999.41;4958600;29;20047;-81
2023/12/10 08:46:04;;;;;;;38.83;6.20;;;;;;;9.45;87.28;100006.78;4958894;29;20055;-81
2023/12/10 08:48:31;;;;;;;22.58;5.68;;;;;;;9.48;87.56;100016.88;4959858;28;20051;-81
2023/12/10 08:50:57;;;;;;;24.85;5.90;;;;;;;9.43;87.51;100012.16;4955288;28;20110;-81
2023/12/10 08:53:24;;;;;;;22.10;4.80;;;;;;;9.50;87.61;100018.34;4960930;28;20051;-80
2023/12/10 08:55:54;;;;;;;20.15;4.82;;;;;;;9.50;87.63;99994.84;4959126;28;20059;-79
2023/12/10 08:58:22;;;;;;;19.55;5.03;;;;;;;9.57;87.60;100016.72;4958758;28;20059;-80
2023/12/10 09:00:48;;;;;;;21.70;5.28;;;;;;;9.54;87.85;100030.09;4961363;29;20047;-80
2023/12/10 09:03:15;;;;;;;20.83;4.88;;;;;;;9.54;88.33;100022.25;4959256;28;20106;-80
2023/12/10 09:05:42;;;;;;;21.02;4.75;;;;;;;9.52;88.47;100026.81;4956742;29;20055;-80
2023/12/10 09:08:08;;;;;;;20.20;5.60;;;;;;;9.53;88.83;100043.31;4958629;28;20087;-79
2023/12/10 09:10:35;;;;;;;23.02;5.63;;;;;;;9.50;89.42;100044.47;4960047;28;20043;-81
2023/12/10 09:13:02;;;;;;;26.20;5.35;;;;;;;9.49;89.71;100048.03;4958412;28;20137;-80
2023/12/10 09:15:30;;;;;;;14.77;4.60;;;;;;;9.54;89.39;100043.16;4952613;28;20058;-79
2023/12/10 09:17:57;;;;;;;20.88;5.22;;;;;;;9.52;89.44;100032.06;4956710;28;20123;-79
2023/12/10 09:20:24;;;;;;;23.33;5.20;;;;;;;9.58;89.48;100054.91;4957182;28;20043;-78
2023/12/10 09:22:50;;;;;;;21.30;5.43;;;;;;;9.56;89.85;100054.25;4958454;28;20413;-80
2023/12/10 09:25:18;;;;;;;23.63;5.85;;;;;;;9.56;89.65;100059.47;4957256;28;20055;-80
2023/12/10 09:27:45;;;;;;;26.63;5.45;;;;;;;9.59;89.67;100056.53;4955075;28;20110;-80
2023/12/10 09:30:12;;;;;;;24.13;5.80;;;;;;;9.69;89.78;100051.16;4956115;28;20047;-81
2023/12/10 09:32:41;;;;;;;25.42;6.00;;;;;;;9.68;89.72;100061.78;4958386;28;20107;-80
2023/12/10 09:35:10;;;;;;;25.63;5.28;;;;;;;9.72;90.00;100057.84;4958607;29;20565;-80
2023/12/10 09:37:38;;;;;;;25.83;5.13;;;;;;;9.79;89.68;100058.81;4960863;28;20371;-81
2023/12/10 09:40:05;;;;;;;25.15;5.70;;;;;;;9.84;89.50;100064.38;4961142;29;20143;-81
2023/12/10 09:42:32;;;;;;;23.60;5.03;;;;;;;9.86;89.68;100070.25;4961117;29;20403;-80
2023/12/10 09:44:59;;;;;;;20.02;5.70;;;;;;;9.77;89.75;100050.34;4948865;28;20067;-82
2023/12/10 09:47:28;;;;;;;21.98;6.43;;;;;;;9.66;89.68;100059.31;4954009;28;20048;-82
2023/12/10 09:54:54;;;;;;;22.42;6.18;;;;;;;9.67;89.98;100067.97;4961187;28;20052;-81
2023/12/10 09:57:20;;;;;;;25.45;5.43;;;;;;;9.78;89.73;100060.63;4969585;28;20051;-82
2023/12/10 09:59:48;;;;;;;19.08;5.28;;;;;;;9.89;89.54;100068.13;4967150;28;20049;-83
2023/12/10 10:02:15;;;;;;;27.52;6.25;;;;;;;10.00;90.10;100072.19;4958530;28;20063;-83
2023/12/10 10:04:43;;;;;;;24.88;5.53;;;;;;;9.98;89.48;100071.53;4964900;28;20051;-83
2023/12/10 10:07:13;;;;;;;21.85;6.72;;;;;;;10.03;89.36;100066.63;4966810;28;20055;-83
2023/12/10 10:09:40;;;;;;;19.55;5.18;;;;;;;10.18;89.39;100059.72;4964094;28;20098;-83
2023/12/10 10:12:08;;;;;;;22.95;5.32;;;;;;;10.26;88.81;100064.16;4959445;28;20070;-81
2023/12/10 10:14:34;;;;;;;23.25;5.38;;;;;;;10.21;88.84;100064.66;4966060;28;20063;-81
2023/12/10 10:17:01;;;;;;;24.80;6.18;;;;;;;10.27;88.52;100058.75;4967376;28;20417;-80
2023/12/10 10:19:28;;;;;;;26.67;6.20;;;;;;;10.18;88.19;100070.19;4964776;28;20046;-82
2023/12/10 10:21:54;;;;;;;24.83;6.78;;;;;;;10.34;88.89;100066.75;4960471;28;20055;-80
2023/12/10 10:24:23;;;;;;;21.98;5.47;;;;;;;10.40;88.87;100067.88;4961553;28;20439;-82
2023/12/10 10:26:50;;;;;;;25.48;5.85;;;;;;;10.39;89.27;100072.31;4962890;28;20062;-81
2023/12/10 10:29:17;;;;;;;23.42;6.03;;;;;;;10.40;89.42;100067.88;4958779;28;20046;-82
2023/12/10 10:31:46;;;;;;;23.83;6.13;;;;;;;10.54;89.12;100075.00;4963365;28;20102;-83
2023/12/10 10:34:15;;;;;;;26.85;5.47;;;;;;;10.52;88.51;100051.63;4964581;28;20055;-80
2023/12/10 10:36:42;;;;;;;20.45;6.72;;;;;;;10.49;88.81;100051.16;4966198;28;20059;-80
2023/12/10 10:39:08;;;;;;;27.08;6.47;;;;;;;10.52;88.68;100049.03;4956594;29;20146;-82
2023/12/10 10:41:36;;;;;;;24.63;6.10;;;;;;;10.63;87.86;100040.81;4962497;28;20101;-84
2023/12/10 10:44:03;;;;;;;26.40;4.97;;;;;;;10.60;87.25;100038.53;4967688;28;20110;-82
2023/12/10 10:46:30;;;;;;;23.27;6.20;;;;;;;10.52;87.52;100035.94;4966246;28;20047;-83
2023/12/10 10:48:58;;;;;;;24.85;5.50;;;;;;;10.59;88.03;100041.31;4964018;28;20044;-82
2023/12/10 10:51:28;;;;;;;26.65;5.75;;;;;;;10.65;88.15;100038.03;4967701;28;20070;-83
2023/12/10 10:53:59;;;;;;;25.00;5.35;;;;;;;10.66;87.99;100039.66;4964474;28;20059;-82
2023/12/10 10:56:26;;;;;;;33.05;7.40;;;;;;;10.55;88.51;100051.31;4971202;28;20082;-84
2023/12/10 10:58:54;;;;;;;22.63;5.20;;;;;;;10.62;88.63;100040.97;4968074;29;20051;-81
2023/12/10 11:01:43;;;;;;;28.33;5.40;;;;;;;10.75;88.72;100036.00;4966221;28;20083;-83
2023/12/10 11:04:12;;;;;;;18.30;5.30;;;;;;;10.82;88.66;100029.09;4967248;28;20078;-81
2023/12/10 11:06:40;;;;;;;28.27;6.32;;;;;;;10.97;88.79;100032.59;4963685;29;20071;-83
2023/12/10 11:09:07;;;;;;;26.27;6.25;;;;;;;10.91;87.85;100025.44;4967082;28;20047;-83
2023/12/10 11:11:39;;;;;;;26.50;6.68;;;;;;;10.94;87.51;100009.38;4960894;28;20186;-83
2023/12/10 11:14:20;;;;;;;22.20;5.13;;;;;;;10.93;87.41;100018.22;4964920;29;20051;-83
2023/12/10 11:16:57;;;;;;;20.38;5.55;;;;;;;10.94;87.05;100008.56;4965923;28;20051;-83
2023/12/10 11:19:24;;;;;;;21.60;7.15;;;;;;;10.88;85.87;99998.78;4965671;28;20086;-82
2023/12/10 11:21:52;;;;;;;22.83;6.70;;;;;;;10.88;85.73;100019.72;4963741;28;20119;-86
2023/12/10 11:24:19;;;;;;;29.92;5.28;;;;;;;10.92;86.17;100019.22;4968882;28;20055;-83
2023/12/10 11:26:46;;;;;;;25.95;5.60;;;;;;;10.88;86.05;100004.84;4963129;28;20075;-84
2023/12/10 11:29:16;;;;;;;27.02;6.55;;;;;;;11.01;85.88;100016.53;4966943;28;20054;-83
2023/12/10 11:31:44;;;;;;;28.30;6.00;;;;;;;11.03;86.04;100022.44;4967293;28;20106;-82
2023/12/10 11:34:11;;;;;;;20.98;5.07;;;;;;;11.01;86.32;100027.84;4971307;28;20110;-80
2023/12/10 11:36:37;;;;;;;23.08;5.47;;;;;;;10.95;85.52;100021.47;4964384;28;20131;-81
2023/12/10 11:39:04;;;;;;;30.20;5.38;;;;;;;11.00;86.13;100031.44;4967346;28;20078;-82